sensor_id;sensor_type;location;lat;lon;timestamp;temperature;humidity
3550;DHT22;45572;48.804;8.330;2023-02-01T00:02:01;5.90;90.90
3550;DHT22;45572;48.804;8.330;2023-02-01T00:04:29;5.90;91.00
3550;DHT22;45572;48.804;8.330;2023-02-01T00:06:57;5.90;91.20
3550;DHT22;45572;48.804;8.330;2023-02-01T00:09:25;6.00;91.20
3550;DHT22;45572;48.804;8.330;2023-02-01T00:11:54;6.00;91.00
3550;DHT22;45572;48.804;8.330;2023-02-01T00:14:25;6.10;91.00
3550;DHT22;45572;48.804;8.330;2023-02-01T00:16:53;6.00;90.90
3550;DHT22;45572;48.804;8.330;2023-02-01T00:19:21;6.00;90.80
3550;DHT22;45572;48.804;8.330;2023-02-01T00:21:49;6.00;90.70
3550;DHT22;45572;48.804;8.330;2023-02-01T00:24:16;6.10;91.00
3550;DHT22;45572;48.804;8.330;2023-02-01T00:26:45;6.10;90.90
3550;DHT22;45572;48.804;8.330;2023-02-01T00:29:17;6.00;90.70
3550;DHT22;45572;48.804;8.330;2023-02-01T00:31:50;6.10;90.80
3550;DHT22;45572;48.804;8.330;2023-02-01T00:34:19;6.10;90.90
3550;DHT22;45572;48.804;8.330;2023-02-01T00:36:46;6.10;90.80
3550;DHT22;45572;48.804;8.330;2023-02-01T00:39:15;6.10;90.80
3550;DHT22;45572;48.804;8.330;2023-02-01T00:41:43;6.10;90.90
3550;DHT22;45572;48.804;8.330;2023-02-01T00:44:11;6.10;90.70
3550;DHT22;45572;48.804;8.330;2023-02-01T00:46:40;6.20;90.50
3550;DHT22;45572;48.804;8.330;2023-02-01T00:49:08;6.20;90.20
3550;DHT22;45572;48.804;8.330;2023-02-01T00:51:35;6.20;90.50
3550;DHT22;45572;48.804;8.330;2023-02-01T00:54:03;6.20;90.40
3550;DHT22;45572;48.804;8.330;2023-02-01T00:56:31;6.20;90.30
3550;DHT22;45572;48.804;8.330;2023-02-01T00:58:59;6.20;90.00
3550;DHT22;45572;48.804;8.330;2023-02-01T01:01:27;6.30;90.20
3550;DHT22;45572;48.804;8.330;2023-02-01T01:04:04;6.30;90.00
3550;DHT22;45572;48.804;8.330;2023-02-01T01:06:33;6.20;89.60
3550;DHT22;45572;48.804;8.330;2023-02-01T01:09:04;6.30;89.80
3550;DHT22;45572;48.804;8.330;2023-02-01T01:11:34;6.20;89.40
3550;DHT22;45572;48.804;8.330;2023-02-01T01:14:04;6.20;89.40
3550;DHT22;45572;48.804;8.330;2023-02-01T01:16:33;6.20;89.40
3550;DHT22;45572;48.804;8.330;2023-02-01T01:19:03;6.30;89.90
3550;DHT22;45572;48.804;8.330;2023-02-01T01:21:31;6.30;89.70
3550;DHT22;45572;48.804;8.330;2023-02-01T01:23:59;6.40;89.80
3550;DHT22;45572;48.804;8.330;2023-02-01T01:26:28;6.40;89.80
3550;DHT22;45572;48.804;8.330;2023-02-01T01:28:58;6.40;89.40
3550;DHT22;45572;48.804;8.330;2023-02-01T01:31:26;6.40;89.20
3550;DHT22;45572;48.804;8.330;2023-02-01T01:33:56;6.40;89.20
3550;DHT22;45572;48.804;8.330;2023-02-01T01:36:26;6.40;89.10
3550;DHT22;45572;48.804;8.330;2023-02-01T01:38:55;6.40;89.10
3550;DHT22;45572;48.804;8.330;2023-02-01T01:41:24;6.40;89.10
3550;DHT22;45572;48.804;8.330;2023-02-01T01:43:56;6.40;89.00
3550;DHT22;45572;48.804;8.330;2023-02-01T01:46:27;6.40;89.00
3550;DHT22;45572;48.804;8.330;2023-02-01T01:49:00;6.30;89.20
3550;DHT22;45572;48.804;8.330;2023-02-01T01:51:35;6.40;89.10
3550;DHT22;45572;48.804;8.330;2023-02-01T01:54:09;6.40;89.20
3550;DHT22;45572;48.804;8.330;2023-02-01T01:56:39;6.40;89.30
3550;DHT22;45572;48.804;8.330;2023-02-01T01:59:08;6.30;89.30
3550;DHT22;45572;48.804;8.330;2023-02-01T02:01:36;6.40;89.50
3550;DHT22;45572;48.804;8.330;2023-02-01T02:04:04;6.40;89.60
3550;DHT22;45572;48.804;8.330;2023-02-01T02:06:40;6.40;89.60
3550;DHT22;45572;48.804;8.330;2023-02-01T02:09:12;6.40;89.60
3550;DHT22;45572;48.804;8.330;2023-02-01T02:11:39;6.40;89.80
3550;DHT22;45572;48.804;8.330;2023-02-01T02:14:09;6.40;89.70
3550;DHT22;45572;48.804;8.330;2023-02-01T02:16:52;6.40;89.60
3550;DHT22;45572;48.804;8.330;2023-02-01T02:22:39;6.40;89.60
3550;DHT22;45572;48.804;8.330;2023-02-01T02:28:22;6.40;89.50
3550;DHT22;45572;48.804;8.330;2023-02-01T02:31:09;6.40;89.50
3550;DHT22;45572;48.804;8.330;2023-02-01T02:33:56;6.40;89.20
3550;DHT22;45572;48.804;8.330;2023-02-01T02:36:32;6.40;89.10
3550;DHT22;45572;48.804;8.330;2023-02-01T02:39:06;6.50;89.20
3550;DHT22;45572;48.804;8.330;2023-02-01T02:41:45;6.50;88.90
3550;DHT22;45572;48.804;8.330;2023-02-01T02:44:37;6.60;88.80
3550;DHT22;45572;48.804;8.330;2023-02-01T02:47:28;6.60;88.50
3550;DHT22;45572;48.804;8.330;2023-02-01T02:50:06;6.60;88.60
3550;DHT22;45572;48.804;8.330;2023-02-01T02:52:55;6.60;88.60
3550;DHT22;45572;48.804;8.330;2023-02-01T02:55:40;6.60;89.00
3550;DHT22;45572;48.804;8.330;2023-02-01T02:58:10;6.50;89.40
3550;DHT22;45572;48.804;8.330;2023-02-01T03:00:55;6.40;89.80
3550;DHT22;45572;48.804;8.330;2023-02-01T03:03:40;6.40;90.30
3550;DHT22;45572;48.804;8.330;2023-02-01T03:06:29;6.30;90.50
3550;DHT22;45572;48.804;8.330;2023-02-01T03:09:03;6.30;90.70
3550;DHT22;45572;48.804;8.330;2023-02-01T03:11:32;6.30;90.90
3550;DHT22;45572;48.804;8.330;2023-02-01T03:14:15;6.30;90.80
3550;DHT22;45572;48.804;8.330;2023-02-01T03:16:47;6.30;90.10
3550;DHT22;45572;48.804;8.330;2023-02-01T03:19:22;6.30;90.20
3550;DHT22;45572;48.804;8.330;2023-02-01T03:21:56;6.30;89.90
3550;DHT22;45572;48.804;8.330;2023-02-01T03:24:32;6.30;89.70
3550;DHT22;45572;48.804;8.330;2023-02-01T03:27:07;6.30;89.70
3550;DHT22;45572;48.804;8.330;2023-02-01T03:29:40;6.40;89.50
3550;DHT22;45572;48.804;8.330;2023-02-01T03:32:10;6.40;89.10
3550;DHT22;45572;48.804;8.330;2023-02-01T03:34:37;6.50;89.20
3550;DHT22;45572;48.804;8.330;2023-02-01T03:37:10;6.50;88.90
3550;DHT22;45572;48.804;8.330;2023-02-01T03:39:43;6.60;88.90
3550;DHT22;45572;48.804;8.330;2023-02-01T03:42:19;6.60;88.80
3550;DHT22;45572;48.804;8.330;2023-02-01T03:44:53;6.50;90.10
3550;DHT22;45572;48.804;8.330;2023-02-01T03:47:23;6.40;90.70
3550;DHT22;45572;48.804;8.330;2023-02-01T03:49:55;6.40;90.90
3550;DHT22;45572;48.804;8.330;2023-02-01T03:52:29;6.30;90.80
3550;DHT22;45572;48.804;8.330;2023-02-01T03:54:58;6.30;90.80
3550;DHT22;45572;48.804;8.330;2023-02-01T03:57:31;6.30;91.00
3550;DHT22;45572;48.804;8.330;2023-02-01T04:00:05;6.30;90.90
3550;DHT22;45572;48.804;8.330;2023-02-01T04:02:54;6.30;90.80
3550;DHT22;45572;48.804;8.330;2023-02-01T04:05:24;6.30;90.30
3550;DHT22;45572;48.804;8.330;2023-02-01T04:07:59;6.40;90.10
3550;DHT22;45572;48.804;8.330;2023-02-01T04:10:27;6.40;90.10
3550;DHT22;45572;48.804;8.330;2023-02-01T04:12:55;6.40;89.80
3550;DHT22;45572;48.804;8.330;2023-02-01T04:15:23;6.50;89.70
3550;DHT22;45572;48.804;8.330;2023-02-01T04:17:51;6.50;89.60
3550;DHT22;45572;48.804;8.330;2023-02-01T04:20:20;6.60;89.30
3550;DHT22;45572;48.804;8.330;2023-02-01T04:22:48;6.60;89.30
3550;DHT22;45572;48.804;8.330;2023-02-01T04:25:16;6.60;89.00
3550;DHT22;45572;48.804;8.330;2023-02-01T04:27:46;6.70;88.50
3550;DHT22;45572;48.804;8.330;2023-02-01T04:30:14;6.70;88.30
3550;DHT22;45572;48.804;8.330;2023-02-01T04:32:42;6.70;88.00
3550;DHT22;45572;48.804;8.330;2023-02-01T04:35:10;6.70;88.00
3550;DHT22;45572;48.804;8.330;2023-02-01T04:37:39;6.80;88.00
3550;DHT22;45572;48.804;8.330;2023-02-01T04:40:08;6.80;87.80
3550;DHT22;45572;48.804;8.330;2023-02-01T04:42:36;6.80;87.60
3550;DHT22;45572;48.804;8.330;2023-02-01T04:45:04;6.80;87.70
3550;DHT22;45572;48.804;8.330;2023-02-01T04:47:32;6.80;87.30
3550;DHT22;45572;48.804;8.330;2023-02-01T04:50:00;6.90;87.30
3550;DHT22;45572;48.804;8.330;2023-02-01T04:52:28;6.90;87.30
3550;DHT22;45572;48.804;8.330;2023-02-01T04:54:57;6.90;86.60
3550;DHT22;45572;48.804;8.330;2023-02-01T04:57:26;6.90;86.60
3550;DHT22;45572;48.804;8.330;2023-02-01T04:59:54;7.00;86.70
3550;DHT22;45572;48.804;8.330;2023-02-01T05:02:22;6.90;87.00
3550;DHT22;45572;48.804;8.330;2023-02-01T05:04:49;7.00;87.20
3550;DHT22;45572;48.804;8.330;2023-02-01T05:07:19;6.90;88.20
3550;DHT22;45572;48.804;8.330;2023-02-01T05:09:47;6.90;89.10
3550;DHT22;45572;48.804;8.330;2023-02-01T05:12:15;6.70;89.90
3550;DHT22;45572;48.804;8.330;2023-02-01T05:14:57;6.60;90.70
3550;DHT22;45572;48.804;8.330;2023-02-01T05:17:25;6.60;90.30
3550;DHT22;45572;48.804;8.330;2023-02-01T05:19:53;6.50;90.10
3550;DHT22;45572;48.804;8.330;2023-02-01T05:22:20;6.50;89.50
3550;DHT22;45572;48.804;8.330;2023-02-01T05:24:48;6.50;89.60
3550;DHT22;45572;48.804;8.330;2023-02-01T05:27:17;6.40;90.50
3550;DHT22;45572;48.804;8.330;2023-02-01T05:29:45;6.40;90.30
3550;DHT22;45572;48.804;8.330;2023-02-01T05:32:12;6.40;90.40
3550;DHT22;45572;48.804;8.330;2023-02-01T05:34:48;6.40;90.30
3550;DHT22;45572;48.804;8.330;2023-02-01T05:37:16;6.30;90.20
3550;DHT22;45572;48.804;8.330;2023-02-01T05:39:44;6.40;90.00
3550;DHT22;45572;48.804;8.330;2023-02-01T05:42:11;6.40;89.90
3550;DHT22;45572;48.804;8.330;2023-02-01T05:44:43;6.40;90.00
3550;DHT22;45572;48.804;8.330;2023-02-01T05:47:12;6.40;89.90
3550;DHT22;45572;48.804;8.330;2023-02-01T05:49:40;6.40;90.10
3550;DHT22;45572;48.804;8.330;2023-02-01T05:52:08;6.40;89.70
3550;DHT22;45572;48.804;8.330;2023-02-01T05:54:36;6.40;89.80
3550;DHT22;45572;48.804;8.330;2023-02-01T05:57:04;6.50;89.60
3550;DHT22;45572;48.804;8.330;2023-02-01T05:59:31;6.40;89.30
3550;DHT22;45572;48.804;8.330;2023-02-01T06:02:00;6.40;89.60
3550;DHT22;45572;48.804;8.330;2023-02-01T06:04:29;6.40;89.70
3550;DHT22;45572;48.804;8.330;2023-02-01T06:06:56;6.40;89.80
3550;DHT22;45572;48.804;8.330;2023-02-01T06:09:24;6.40;89.70
3550;DHT22;45572;48.804;8.330;2023-02-01T06:11:52;6.40;89.60
3550;DHT22;45572;48.804;8.330;2023-02-01T06:14:20;6.40;89.80
3550;DHT22;45572;48.804;8.330;2023-02-01T06:16:48;6.40;89.50
3550;DHT22;45572;48.804;8.330;2023-02-01T06:19:17;6.40;90.00
3550;DHT22;45572;48.804;8.330;2023-02-01T06:21:44;6.50;90.00
3550;DHT22;45572;48.804;8.330;2023-02-01T06:24:13;6.50;89.80
3550;DHT22;45572;48.804;8.330;2023-02-01T06:26:41;6.50;89.40
3550;DHT22;45572;48.804;8.330;2023-02-01T06:29:10;6.50;89.20
3550;DHT22;45572;48.804;8.330;2023-02-01T06:31:38;6.50;89.20
3550;DHT22;45572;48.804;8.330;2023-02-01T06:34:06;6.40;89.20
3550;DHT22;45572;48.804;8.330;2023-02-01T06:36:35;6.50;89.10
3550;DHT22;45572;48.804;8.330;2023-02-01T06:39:03;6.50;89.00
3550;DHT22;45572;48.804;8.330;2023-02-01T06:41:31;6.50;89.10
3550;DHT22;45572;48.804;8.330;2023-02-01T06:44:01;6.50;89.00
3550;DHT22;45572;48.804;8.330;2023-02-01T06:46:29;6.60;89.00
3550;DHT22;45572;48.804;8.330;2023-02-01T06:48:57;6.60;89.50
3550;DHT22;45572;48.804;8.330;2023-02-01T06:51:26;6.70;89.40
3550;DHT22;45572;48.804;8.330;2023-02-01T06:53:56;6.70;89.40
3550;DHT22;45572;48.804;8.330;2023-02-01T06:56:24;6.70;89.00
3550;DHT22;45572;48.804;8.330;2023-02-01T06:58:52;6.60;88.80
3550;DHT22;45572;48.804;8.330;2023-02-01T07:01:20;6.60;88.70
3550;DHT22;45572;48.804;8.330;2023-02-01T07:03:49;6.60;89.00
3550;DHT22;45572;48.804;8.330;2023-02-01T07:06:18;6.60;89.00
3550;DHT22;45572;48.804;8.330;2023-02-01T07:08:46;6.70;89.20
3550;DHT22;45572;48.804;8.330;2023-02-01T07:11:16;6.70;89.00
3550;DHT22;45572;48.804;8.330;2023-02-01T07:13:45;6.70;88.70
3550;DHT22;45572;48.804;8.330;2023-02-01T07:16:14;6.70;88.70
3550;DHT22;45572;48.804;8.330;2023-02-01T07:18:42;6.70;88.80
3550;DHT22;45572;48.804;8.330;2023-02-01T07:21:10;6.70;88.80
3550;DHT22;45572;48.804;8.330;2023-02-01T07:23:38;6.70;89.00
3550;DHT22;45572;48.804;8.330;2023-02-01T07:26:10;6.70;88.40
3550;DHT22;45572;48.804;8.330;2023-02-01T07:28:40;6.80;88.40
3550;DHT22;45572;48.804;8.330;2023-02-01T07:31:11;6.80;88.30
3550;DHT22;45572;48.804;8.330;2023-02-01T07:33:42;6.70;88.00
3550;DHT22;45572;48.804;8.330;2023-02-01T07:36:12;6.70;88.00
3550;DHT22;45572;48.804;8.330;2023-02-01T07:38:41;6.70;88.00
3550;DHT22;45572;48.804;8.330;2023-02-01T07:41:09;6.70;88.10
3550;DHT22;45572;48.804;8.330;2023-02-01T07:43:37;6.70;88.00
3550;DHT22;45572;48.804;8.330;2023-02-01T07:46:06;6.70;88.10
3550;DHT22;45572;48.804;8.330;2023-02-01T07:48:34;6.80;88.30
3550;DHT22;45572;48.804;8.330;2023-02-01T07:51:04;6.80;88.30
3550;DHT22;45572;48.804;8.330;2023-02-01T07:53:33;6.80;88.10
3550;DHT22;45572;48.804;8.330;2023-02-01T07:56:01;6.90;87.90
3550;DHT22;45572;48.804;8.330;2023-02-01T07:58:29;6.90;87.80
3550;DHT22;45572;48.804;8.330;2023-02-01T08:00:57;6.90;87.90
3550;DHT22;45572;48.804;8.330;2023-02-01T08:03:42;6.90;87.80
3550;DHT22;45572;48.804;8.330;2023-02-01T08:06:09;6.80;87.80
3550;DHT22;45572;48.804;8.330;2023-02-01T08:08:38;6.90;87.80
3550;DHT22;45572;48.804;8.330;2023-02-01T08:11:06;6.90;87.40
3550;DHT22;45572;48.804;8.330;2023-02-01T08:13:34;6.90;87.50
3550;DHT22;45572;48.804;8.330;2023-02-01T08:16:05;6.90;87.30
3550;DHT22;45572;48.804;8.330;2023-02-01T08:18:35;6.90;87.50
3550;DHT22;45572;48.804;8.330;2023-02-01T08:21:06;6.80;87.20
3550;DHT22;45572;48.804;8.330;2023-02-01T08:23:39;6.80;87.30
3550;DHT22;45572;48.804;8.330;2023-02-01T08:26:08;6.80;87.20
3550;DHT22;45572;48.804;8.330;2023-02-01T08:28:37;6.80;87.40
3550;DHT22;45572;48.804;8.330;2023-02-01T08:31:11;6.80;87.20
3550;DHT22;45572;48.804;8.330;2023-02-01T08:33:42;6.80;87.50
3550;DHT22;45572;48.804;8.330;2023-02-01T08:36:11;6.80;87.60
3550;DHT22;45572;48.804;8.330;2023-02-01T08:38:42;6.90;87.40
3550;DHT22;45572;48.804;8.330;2023-02-01T08:41:12;6.80;87.30
3550;DHT22;45572;48.804;8.330;2023-02-01T08:43:40;6.90;87.20
3550;DHT22;45572;48.804;8.330;2023-02-01T08:46:10;7.00;87.10
3550;DHT22;45572;48.804;8.330;2023-02-01T08:48:39;7.00;86.60
3550;DHT22;45572;48.804;8.330;2023-02-01T08:51:09;7.00;86.50
3550;DHT22;45572;48.804;8.330;2023-02-01T08:53:40;7.00;86.50
3550;DHT22;45572;48.804;8.330;2023-02-01T08:56:10;7.00;86.60
3550;DHT22;45572;48.804;8.330;2023-02-01T08:58:38;7.10;86.40
3550;DHT22;45572;48.804;8.330;2023-02-01T09:01:08;7.10;85.70
3550;DHT22;45572;48.804;8.330;2023-02-01T09:03:36;7.10;85.90
3550;DHT22;45572;48.804;8.330;2023-02-01T09:06:06;7.10;86.10
3550;DHT22;45572;48.804;8.330;2023-02-01T09:08:35;7.10;85.20
3550;DHT22;45572;48.804;8.330;2023-02-01T09:11:07;7.10;85.60
3550;DHT22;45572;48.804;8.330;2023-02-01T09:13:35;7.10;85.50
3550;DHT22;45572;48.804;8.330;2023-02-01T09:16:03;7.10;85.40
3550;DHT22;45572;48.804;8.330;2023-02-01T09:18:32;7.10;85.30
3550;DHT22;45572;48.804;8.330;2023-02-01T09:21:04;7.10;85.70
3550;DHT22;45572;48.804;8.330;2023-02-01T09:23:32;7.10;85.60
3550;DHT22;45572;48.804;8.330;2023-02-01T09:26:00;7.10;85.20
3550;DHT22;45572;48.804;8.330;2023-02-01T09:28:30;7.20;85.20
3550;DHT22;45572;48.804;8.330;2023-02-01T09:30:59;7.30;84.90
3550;DHT22;45572;48.804;8.330;2023-02-01T09:33:28;7.30;84.40
3550;DHT22;45572;48.804;8.330;2023-02-01T09:35:57;7.30;84.00
3550;DHT22;45572;48.804;8.330;2023-02-01T09:38:25;7.30;84.20
3550;DHT22;45572;48.804;8.330;2023-02-01T09:40:54;7.50;83.80
3550;DHT22;45572;48.804;8.330;2023-02-01T09:43:34;7.50;83.40
3550;DHT22;45572;48.804;8.330;2023-02-01T09:46:19;7.50;83.20
3550;DHT22;45572;48.804;8.330;2023-02-01T09:48:54;7.50;83.50
3550;DHT22;45572;48.804;8.330;2023-02-01T09:51:26;7.40;82.70
3550;DHT22;45572;48.804;8.330;2023-02-01T09:53:58;7.40;82.70
3550;DHT22;45572;48.804;8.330;2023-02-01T09:56:36;7.40;82.80
3550;DHT22;45572;48.804;8.330;2023-02-01T09:59:19;7.40;83.10
3550;DHT22;45572;48.804;8.330;2023-02-01T10:01:48;7.40;83.20
3550;DHT22;45572;48.804;8.330;2023-02-01T10:04:17;7.40;82.60
3550;DHT22;45572;48.804;8.330;2023-02-01T10:06:54;7.50;82.90
3550;DHT22;45572;48.804;8.330;2023-02-01T10:09:36;7.50;82.30
3550;DHT22;45572;48.804;8.330;2023-02-01T10:12:29;7.50;82.20
3550;DHT22;45572;48.804;8.330;2023-02-01T10:15:13;7.50;82.00
3550;DHT22;45572;48.804;8.330;2023-02-01T10:17:51;7.50;81.40
3550;DHT22;45572;48.804;8.330;2023-02-01T10:20:28;7.50;81.60
3550;DHT22;45572;48.804;8.330;2023-02-01T10:23:04;7.60;81.90
3550;DHT22;45572;48.804;8.330;2023-02-01T10:25:55;7.60;81.60
3550;DHT22;45572;48.804;8.330;2023-02-01T10:28:24;7.50;82.10
3550;DHT22;45572;48.804;8.330;2023-02-01T10:30:56;7.50;82.30
3550;DHT22;45572;48.804;8.330;2023-02-01T10:33:30;7.40;82.30
3550;DHT22;45572;48.804;8.330;2023-02-01T10:36:04;7.40;82.80
3550;DHT22;45572;48.804;8.330;2023-02-01T10:38:34;7.40;83.10
3550;DHT22;45572;48.804;8.330;2023-02-01T10:41:03;7.40;83.30
3550;DHT22;45572;48.804;8.330;2023-02-01T10:43:38;7.50;83.20
3550;DHT22;45572;48.804;8.330;2023-02-01T10:46:08;7.40;82.70
3550;DHT22;45572;48.804;8.330;2023-02-01T10:48:37;7.40;83.20
3550;DHT22;45572;48.804;8.330;2023-02-01T10:51:12;7.40;83.50
3550;DHT22;45572;48.804;8.330;2023-02-01T10:53:48;7.40;83.60
3550;DHT22;45572;48.804;8.330;2023-02-01T10:56:22;7.40;83.50
3550;DHT22;45572;48.804;8.330;2023-02-01T10:58:51;7.40;83.30
3550;DHT22;45572;48.804;8.330;2023-02-01T11:01:30;7.30;83.60
3550;DHT22;45572;48.804;8.330;2023-02-01T11:04:00;7.40;83.90
3550;DHT22;45572;48.804;8.330;2023-02-01T11:06:30;7.40;83.60
3550;DHT22;45572;48.804;8.330;2023-02-01T11:09:01;7.50;83.30
3550;DHT22;45572;48.804;8.330;2023-02-01T11:11:54;7.50;83.30
3550;DHT22;45572;48.804;8.330;2023-02-01T11:14:30;7.40;83.10
3550;DHT22;45572;48.804;8.330;2023-02-01T11:17:03;7.40;83.30
3550;DHT22;45572;48.804;8.330;2023-02-01T11:19:38;7.40;83.30
3550;DHT22;45572;48.804;8.330;2023-02-01T11:22:09;7.40;83.00
3550;DHT22;45572;48.804;8.330;2023-02-01T11:24:40;7.40;83.50
3550;DHT22;45572;48.804;8.330;2023-02-01T11:27:15;7.50;83.10
3550;DHT22;45572;48.804;8.330;2023-02-01T11:29:55;7.50;82.60
3550;DHT22;45572;48.804;8.330;2023-02-01T11:32:25;7.50;82.40
3550;DHT22;45572;48.804;8.330;2023-02-01T11:34:56;7.50;82.30
3550;DHT22;45572;48.804;8.330;2023-02-01T11:37:27;7.50;82.10
3550;DHT22;45572;48.804;8.330;2023-02-01T11:39:57;7.50;81.90
3550;DHT22;45572;48.804;8.330;2023-02-01T11:42:26;7.50;82.10
3550;DHT22;45572;48.804;8.330;2023-02-01T11:45:18;7.50;82.10
3550;DHT22;45572;48.804;8.330;2023-02-01T11:47:52;7.40;81.70
3550;DHT22;45572;48.804;8.330;2023-02-01T11:50:28;7.40;81.80
3550;DHT22;45572;48.804;8.330;2023-02-01T11:53:10;7.40;81.70
3550;DHT22;45572;48.804;8.330;2023-02-01T11:55:52;7.40;81.80
3550;DHT22;45572;48.804;8.330;2023-02-01T11:58:36;7.40;81.70
3550;DHT22;45572;48.804;8.330;2023-02-01T12:01:18;7.40;82.10
3550;DHT22;45572;48.804;8.330;2023-02-01T12:04:15;7.50;82.80
3550;DHT22;45572;48.804;8.330;2023-02-01T12:06:49;7.40;82.60
3550;DHT22;45572;48.804;8.330;2023-02-01T12:09:29;7.40;83.00
3550;DHT22;45572;48.804;8.330;2023-02-01T12:12:08;7.40;82.40
3550;DHT22;45572;48.804;8.330;2023-02-01T12:14:53;7.30;82.50
3550;DHT22;45572;48.804;8.330;2023-02-01T12:17:41;7.40;82.60
3550;DHT22;45572;48.804;8.330;2023-02-01T12:20:24;7.30;82.20
3550;DHT22;45572;48.804;8.330;2023-02-01T12:23:12;7.40;82.40
3550;DHT22;45572;48.804;8.330;2023-02-01T12:25:57;7.40;82.70
3550;DHT22;45572;48.804;8.330;2023-02-01T12:28:46;7.30;82.70
3550;DHT22;45572;48.804;8.330;2023-02-01T12:31:28;7.30;83.50
3550;DHT22;45572;48.804;8.330;2023-02-01T12:34:18;7.20;85.40
3550;DHT22;45572;48.804;8.330;2023-02-01T12:36:58;7.10;85.30
3550;DHT22;45572;48.804;8.330;2023-02-01T12:39:32;7.10;85.30
3550;DHT22;45572;48.804;8.330;2023-02-01T12:42:11;7.00;84.80
3550;DHT22;45572;48.804;8.330;2023-02-01T12:44:45;7.10;84.80
3550;DHT22;45572;48.804;8.330;2023-02-01T12:47:22;7.20;84.70
3550;DHT22;45572;48.804;8.330;2023-02-01T12:49:57;7.20;84.40
3550;DHT22;45572;48.804;8.330;2023-02-01T12:52:34;7.20;84.30
3550;DHT22;45572;48.804;8.330;2023-02-01T12:55:09;7.10;84.10
3550;DHT22;45572;48.804;8.330;2023-02-01T12:57:45;7.10;85.40
3550;DHT22;45572;48.804;8.330;2023-02-01T13:00:21;7.10;85.90
3550;DHT22;45572;48.804;8.330;2023-02-01T13:02:59;7.00;85.20
3550;DHT22;45572;48.804;8.330;2023-02-01T13:05:36;7.00;85.90
3550;DHT22;45572;48.804;8.330;2023-02-01T13:08:11;7.00;85.40
3550;DHT22;45572;48.804;8.330;2023-02-01T13:10:45;7.00;86.30
3550;DHT22;45572;48.804;8.330;2023-02-01T13:13:19;7.00;85.50
3550;DHT22;45572;48.804;8.330;2023-02-01T13:15:55;7.00;85.20
3550;DHT22;45572;48.804;8.330;2023-02-01T13:18:31;7.10;84.90
3550;DHT22;45572;48.804;8.330;2023-02-01T13:21:05;7.10;84.90
3550;DHT22;45572;48.804;8.330;2023-02-01T13:23:38;7.20;84.90
3550;DHT22;45572;48.804;8.330;2023-02-01T13:26:06;7.20;84.60
3550;DHT22;45572;48.804;8.330;2023-02-01T13:28:44;7.20;84.70
3550;DHT22;45572;48.804;8.330;2023-02-01T13:31:32;7.20;84.40
3550;DHT22;45572;48.804;8.330;2023-02-01T13:34:26;7.20;84.50
3550;DHT22;45572;48.804;8.330;2023-02-01T13:37:08;7.20;84.90
3550;DHT22;45572;48.804;8.330;2023-02-01T13:39:51;7.10;85.10
3550;DHT22;45572;48.804;8.330;2023-02-01T13:42:25;7.10;85.70
3550;DHT22;45572;48.804;8.330;2023-02-01T13:44:57;7.00;86.20
3550;DHT22;45572;48.804;8.330;2023-02-01T13:47:31;7.00;86.10
3550;DHT22;45572;48.804;8.330;2023-02-01T13:50:02;7.10;85.70
3550;DHT22;45572;48.804;8.330;2023-02-01T13:52:37;7.20;84.80
3550;DHT22;45572;48.804;8.330;2023-02-01T13:55:30;7.20;84.60
3550;DHT22;45572;48.804;8.330;2023-02-01T13:58:04;7.20;85.20
3550;DHT22;45572;48.804;8.330;2023-02-01T14:00:36;7.30;84.80
3550;DHT22;45572;48.804;8.330;2023-02-01T14:03:13;7.30;84.50
3550;DHT22;45572;48.804;8.330;2023-02-01T14:06:01;7.30;84.90
3550;DHT22;45572;48.804;8.330;2023-02-01T14:08:45;7.30;84.50
3550;DHT22;45572;48.804;8.330;2023-02-01T14:11:36;7.30;84.80
3550;DHT22;45572;48.804;8.330;2023-02-01T14:23:01;7.50;84.30
3550;DHT22;45572;48.804;8.330;2023-02-01T14:25:32;7.50;83.80
3550;DHT22;45572;48.804;8.330;2023-02-01T14:28:10;7.50;83.50
3550;DHT22;45572;48.804;8.330;2023-02-01T14:30:42;7.50;83.70
3550;DHT22;45572;48.804;8.330;2023-02-01T14:33:18;7.50;83.90
3550;DHT22;45572;48.804;8.330;2023-02-01T14:36:01;7.50;83.60
3550;DHT22;45572;48.804;8.330;2023-02-01T14:38:32;7.50;83.80
3550;DHT22;45572;48.804;8.330;2023-02-01T14:41:23;7.60;83.40
3550;DHT22;45572;48.804;8.330;2023-02-01T14:44:21;7.60;83.10
3550;DHT22;45572;48.804;8.330;2023-02-01T14:47:09;7.50;83.60
3550;DHT22;45572;48.804;8.330;2023-02-01T14:49:39;7.50;83.60
3550;DHT22;45572;48.804;8.330;2023-02-01T14:52:16;7.40;83.40
3550;DHT22;45572;48.804;8.330;2023-02-01T14:54:48;7.40;83.10
3550;DHT22;45572;48.804;8.330;2023-02-01T14:57:20;7.40;83.40
3550;DHT22;45572;48.804;8.330;2023-02-01T14:59:53;7.40;83.20
3550;DHT22;45572;48.804;8.330;2023-02-01T15:02:25;7.50;83.40
3550;DHT22;45572;48.804;8.330;2023-02-01T15:04:55;7.50;82.80
3550;DHT22;45572;48.804;8.330;2023-02-01T15:07:25;7.40;83.00
3550;DHT22;45572;48.804;8.330;2023-02-01T15:09:56;7.40;83.30
3550;DHT22;45572;48.804;8.330;2023-02-01T15:12:27;7.50;82.30
3550;DHT22;45572;48.804;8.330;2023-02-01T15:15:13;7.50;83.00
3550;DHT22;45572;48.804;8.330;2023-02-01T15:17:41;7.60;82.70
3550;DHT22;45572;48.804;8.330;2023-02-01T15:20:14;7.70;82.40
3550;DHT22;45572;48.804;8.330;2023-02-01T15:22:53;7.70;82.00
3550;DHT22;45572;48.804;8.330;2023-02-01T15:25:23;7.70;81.90
3550;DHT22;45572;48.804;8.330;2023-02-01T15:27:52;7.70;81.70
3550;DHT22;45572;48.804;8.330;2023-02-01T15:30:24;7.70;81.60
3550;DHT22;45572;48.804;8.330;2023-02-01T15:33:04;7.70;80.70
3550;DHT22;45572;48.804;8.330;2023-02-01T15:35:35;7.70;81.00
3550;DHT22;45572;48.804;8.330;2023-02-01T15:41:05;7.70;81.60
3550;DHT22;45572;48.804;8.330;2023-02-01T15:43:36;7.70;81.40
3550;DHT22;45572;48.804;8.330;2023-02-01T15:46:10;7.80;81.30
3550;DHT22;45572;48.804;8.330;2023-02-01T15:48:43;7.80;81.10
3550;DHT22;45572;48.804;8.330;2023-02-01T15:51:14;7.80;80.80
3550;DHT22;45572;48.804;8.330;2023-02-01T15:53:47;7.80;80.50
3550;DHT22;45572;48.804;8.330;2023-02-01T15:56:20;7.80;80.30
3550;DHT22;45572;48.804;8.330;2023-02-01T15:58:51;7.70;80.10
3550;DHT22;45572;48.804;8.330;2023-02-01T16:01:23;7.70;80.20
3550;DHT22;45572;48.804;8.330;2023-02-01T16:04:03;7.70;80.30
3550;DHT22;45572;48.804;8.330;2023-02-01T16:06:33;7.60;80.30
3550;DHT22;45572;48.804;8.330;2023-02-01T16:09:09;7.60;80.30
3550;DHT22;45572;48.804;8.330;2023-02-01T16:11:46;7.60;80.30
3550;DHT22;45572;48.804;8.330;2023-02-01T16:14:14;7.60;80.10
3550;DHT22;45572;48.804;8.330;2023-02-01T16:16:44;7.50;80.10
3550;DHT22;45572;48.804;8.330;2023-02-01T16:19:12;7.50;79.80
3550;DHT22;45572;48.804;8.330;2023-02-01T16:21:39;7.50;80.30
3550;DHT22;45572;48.804;8.330;2023-02-01T16:24:07;7.50;80.20
3550;DHT22;45572;48.804;8.330;2023-02-01T16:26:35;7.50;80.40
3550;DHT22;45572;48.804;8.330;2023-02-01T16:29:04;7.50;80.50
3550;DHT22;45572;48.804;8.330;2023-02-01T16:31:36;7.50;80.40
3550;DHT22;45572;48.804;8.330;2023-02-01T16:34:10;7.50;80.20
3550;DHT22;45572;48.804;8.330;2023-02-01T16:36:40;7.50;80.50
3550;DHT22;45572;48.804;8.330;2023-02-01T16:39:10;7.40;80.50
3550;DHT22;45572;48.804;8.330;2023-02-01T16:41:38;7.40;80.60
3550;DHT22;45572;48.804;8.330;2023-02-01T16:44:07;7.40;81.00
3550;DHT22;45572;48.804;8.330;2023-02-01T16:46:39;7.40;81.00
3550;DHT22;45572;48.804;8.330;2023-02-01T16:49:18;7.40;81.10
3550;DHT22;45572;48.804;8.330;2023-02-01T16:51:47;7.50;81.00
3550;DHT22;45572;48.804;8.330;2023-02-01T16:54:16;7.50;80.70
3550;DHT22;45572;48.804;8.330;2023-02-01T16:56:44;7.50;80.90